createdAt,value
2019-04-23T00:03:54.801Z,10.78
2019-04-23T00:06:33.778Z,10.34
2019-04-23T00:09:15.610Z,10.59
2019-04-23T00:11:41.601Z,10.60
2019-04-23T00:14:15.157Z,10.67
2019-04-23T00:16:44.796Z,10.49
2019-04-23T00:19:19.839Z,9.96
2019-04-23T00:22:17.934Z,10.24
2019-04-23T00:25:11.941Z,9.98
2019-04-23T00:27:29.167Z,10.27
2019-04-23T00:32:28.601Z,10.69
2019-04-23T00:34:59.587Z,10.54
2019-04-23T00:40:03.246Z,10.70
2019-04-23T00:42:41.493Z,10.47
2019-04-23T00:45:23.016Z,10.38
2019-04-23T00:53:12.055Z,9.76
2019-04-23T00:55:29.888Z,9.66
2019-04-23T00:58:08.618Z,9.73
2019-04-23T01:00:43.558Z,9.79
2019-04-23T01:03:12.521Z,9.69
2019-04-23T01:06:01.823Z,9.93
2019-04-23T01:08:20.152Z,9.89
2019-04-23T01:11:08.214Z,10.34
2019-04-23T01:13:44.289Z,10.14
2019-04-23T01:16:11.891Z,10.28
2019-04-23T01:21:11.683Z,10.44
2019-04-23T01:23:58.674Z,10.36
2019-04-23T01:26:50.356Z,10.25
2019-04-23T01:29:28.286Z,10.25
2019-04-23T01:32:02.303Z,10.09
2019-04-23T01:34:44.003Z,9.64
2019-04-23T01:37:09.219Z,9.38
2019-04-23T01:39:49.970Z,9.38
2019-04-23T01:42:22.231Z,9.44
2019-04-23T01:45:01.249Z,9.59
2019-04-23T01:47:26.712Z,9.60
2019-04-23T01:50:09.664Z,9.63
2019-04-23T01:52:38.101Z,9.58
2019-04-23T01:55:18.370Z,9.50
2019-04-23T01:57:47.194Z,9.52
2019-04-23T02:02:58.993Z,9.55
2019-04-23T02:07:56.844Z,9.70
2019-04-23T02:10:40.876Z,9.75
2019-04-23T02:13:12.088Z,9.68
2019-04-23T02:20:47.938Z,9.62
2019-04-23T02:23:39.543Z,9.76
2019-04-23T02:26:10.961Z,9.96
2019-04-23T02:28:54.605Z,10.16
2019-04-23T02:34:00.624Z,9.99
2019-04-23T02:36:31.712Z,10.13
2019-04-23T02:39:22.490Z,10.12
2019-04-23T02:46:55.921Z,10.03
2019-04-23T02:52:11.186Z,9.57
2019-04-23T02:57:01.381Z,9.25
2019-04-23T03:00:05.608Z,9.11
2019-04-23T03:02:42.869Z,9.12
2019-04-23T03:10:10.117Z,9.43
2019-04-23T03:12:37.982Z,9.48
2019-04-23T03:21:31.275Z,9.53
2019-04-23T03:39:56.678Z,9.78
2019-04-23T04:00:33.350Z,9.85
2019-04-23T04:08:13.256Z,9.48
2019-04-23T04:10:44.728Z,9.11
2019-04-23T04:13:22.814Z,9.26
2019-04-23T04:15:55.735Z,9.12
2019-04-23T04:21:08.487Z,9.06
2019-04-23T04:23:41.034Z,9.09
2019-04-23T04:26:04.486Z,8.95
2019-04-23T04:28:47.188Z,8.87
2019-04-23T04:31:18.749Z,8.84
2019-04-23T04:44:17.050Z,8.93
2019-04-23T04:46:39.787Z,8.78
2019-04-23T04:49:11.900Z,8.77
2019-04-23T04:54:23.062Z,8.65
2019-04-23T04:56:51.404Z,8.94
2019-04-23T04:59:27.836Z,8.91
2019-04-23T05:02:09.431Z,8.76
2019-04-23T05:07:11.222Z,8.47
2019-04-23T05:09:48.529Z,8.38
2019-04-23T05:12:22.021Z,8.49
2019-04-23T05:14:56.923Z,8.49
2019-04-23T05:17:42.445Z,8.48
2019-04-23T05:20:05.103Z,8.54
2019-04-23T05:25:05.493Z,8.50
2019-04-23T05:27:53.557Z,8.44
2019-04-23T05:30:29.776Z,8.65
2019-04-23T05:32:57.960Z,8.84
2019-04-23T05:43:04.336Z,9.18
2019-04-23T05:48:19.769Z,9.15
2019-04-23T05:50:59.187Z,8.92
2019-04-23T05:56:03.573Z,9.30
2019-04-23T05:58:38.664Z,8.99
2019-04-23T06:09:10.910Z,8.51
2019-04-23T06:11:56.968Z,8.30
2019-04-23T06:19:19.008Z,8.30
2019-04-23T06:22:07.436Z,8.34
2019-04-23T06:32:06.101Z,8.87
2019-04-23T06:34:50.294Z,8.70
2019-04-23T06:37:16.091Z,8.86
2019-04-23T06:39:48.413Z,9.37
2019-04-23T06:42:19.424Z,9.29
2019-04-23T06:44:56.153Z,9.38
2019-04-23T06:47:29.285Z,8.95
2019-04-23T06:50:25.673Z,8.95
2019-04-23T06:52:31.548Z,9.15
2019-04-23T06:55:14.915Z,9.44
2019-04-23T06:57:52.201Z,9.78
2019-04-23T07:00:29.452Z,9.93
2019-04-23T07:03:00.316Z,10.05
2019-04-23T07:06:03.753Z,10.32
2019-04-23T07:08:34.465Z,12.49
2019-04-23T07:11:11.836Z,12.65
2019-04-23T07:13:41.321Z,12.57
2019-04-23T07:16:12.883Z,10.80
2019-04-23T07:18:41.137Z,11.32
2019-04-23T07:21:17.913Z,10.54
2019-04-23T07:31:37.922Z,9.46
2019-04-23T07:39:27.487Z,9.31
2019-04-23T07:44:56.380Z,9.49
2019-04-23T07:48:13.392Z,9.97
2019-04-23T07:55:48.178Z,10.36
2019-04-23T07:58:23.784Z,10.49
2019-04-23T08:03:45.119Z,10.05
2019-04-23T08:06:00.566Z,10.27
2019-04-23T08:08:39.858Z,10.17
2019-04-23T08:11:30.789Z,10.29
2019-04-23T08:16:32.895Z,9.98
2019-04-23T08:18:55.621Z,9.84
2019-04-23T08:21:29.602Z,9.72
2019-04-23T08:24:08.680Z,9.84
2019-04-23T08:27:04.276Z,9.36
2019-04-23T08:29:28.092Z,9.71
2019-04-23T08:32:12.224Z,9.80
2019-04-23T08:34:48.254Z,9.82
2019-04-23T08:37:24.572Z,10.52
2019-04-23T08:39:46.606Z,11.35
2019-04-23T08:42:42.736Z,11.94
2019-04-23T08:51:19.441Z,11.57
2019-04-23T08:56:11.428Z,11.34
2019-04-23T08:58:39.633Z,11.63
2019-04-23T09:01:17.286Z,11.40
2019-04-23T09:03:46.286Z,11.21
2019-04-23T09:06:24.501Z,11.95
2019-04-23T09:08:56.590Z,11.95
2019-04-23T09:11:41.739Z,11.43
2019-04-23T09:14:03.568Z,11.65
2019-04-23T09:16:46.812Z,12.28
2019-04-23T09:19:16.025Z,12.68
2019-04-23T09:21:56.456Z,13.33
2019-04-23T09:24:22.298Z,13.54
2019-04-23T09:27:00.134Z,13.37
2019-04-23T09:29:40.560Z,13.50
2019-04-23T09:35:06.225Z,15.51
2019-04-23T09:37:59.604Z,13.65
2019-04-23T09:44:23.214Z,16.11
2019-04-23T09:47:01.924Z,15.52
2019-04-23T09:49:35.032Z,15.15
2019-04-23T09:52:07.286Z,14.91
2019-04-23T09:54:45.903Z,14.93
2019-04-23T09:57:29.672Z,14.99
2019-04-23T10:00:10.591Z,14.28
2019-04-23T10:02:13.643Z,14.26
2019-04-23T10:04:46.318Z,14.93
2019-04-23T10:07:16.215Z,14.71
2019-04-23T10:09:38.319Z,13.91
2019-04-23T10:12:13.085Z,14.08
2019-04-23T10:14:53.880Z,14.17
2019-04-23T10:17:20.250Z,14.15
2019-04-23T10:19:55.387Z,14.00
2019-04-23T10:22:27.284Z,14.38
2019-04-23T10:24:59.488Z,14.69
2019-04-23T10:27:32.873Z,14.92
2019-04-23T10:30:05.965Z,14.53
2019-04-23T10:32:40.129Z,14.44
2019-04-23T10:35:22.382Z,13.57
2019-04-23T10:37:53.965Z,13.31
2019-04-23T10:40:28.131Z,13.30
2019-04-23T10:42:57.904Z,13.22
2019-04-23T10:46:15.389Z,12.95
2019-04-23T10:49:34.784Z,12.59
2019-04-23T10:52:07.405Z,12.11
2019-04-23T10:54:34.261Z,11.34
2019-04-23T10:57:07.386Z,11.46
2019-04-23T11:10:03.479Z,10.84
2019-04-23T11:13:12.103Z,11.28
2019-04-23T11:18:34.913Z,11.69
2019-04-23T11:21:00.642Z,12.08
2019-04-23T11:23:29.079Z,12.80
2019-04-23T11:42:23.431Z,13.38
2019-04-23T11:44:48.171Z,13.28
2019-04-23T11:47:45.546Z,12.85
2019-04-23T11:50:01.540Z,12.04
2019-04-23T11:52:38.450Z,11.81
2019-04-23T11:55:09.527Z,12.15
2019-04-23T11:57:59.296Z,11.98
2019-04-23T12:03:10.927Z,11.60
2019-04-23T12:06:09.545Z,11.20
2019-04-23T12:09:17.982Z,11.05
2019-04-23T12:22:21.873Z,11.49
2019-04-23T12:25:06.530Z,11.91
2019-04-23T12:27:30.584Z,12.38
2019-04-23T12:29:54.337Z,12.61
2019-04-23T12:35:19.471Z,12.69
2019-04-23T12:37:44.880Z,13.27
2019-04-23T12:40:24.827Z,13.01
2019-04-23T12:45:31.758Z,13.15
2019-04-23T12:48:02.142Z,12.67
2019-04-23T12:58:21.984Z,11.11
2019-04-23T13:00:45.797Z,11.18
2019-04-23T13:05:51.232Z,10.38
2019-04-23T13:08:39.217Z,10.21
2019-04-23T13:11:29.849Z,9.96
2019-04-23T13:13:50.287Z,10.12
2019-04-23T13:16:18.062Z,10.24
2019-04-23T13:18:49.782Z,10.46
2019-04-23T13:21:45.191Z,10.76
2019-04-23T13:24:20.596Z,11.16
2019-04-23T13:26:58.688Z,11.51
2019-04-23T13:29:38.248Z,12.04
2019-04-23T13:31:58.740Z,12.71
2019-04-23T13:34:41.383Z,13.28
2019-04-23T13:37:11.193Z,12.69
2019-04-23T13:39:43.872Z,12.83
2019-04-23T13:42:24.865Z,13.51
2019-04-23T13:45:00.975Z,14.24
2019-04-23T13:47:41.419Z,15.01
2019-04-23T13:50:10.835Z,15.14
2019-04-23T13:52:57.839Z,15.51
2019-04-23T13:55:11.165Z,15.64
2019-04-23T14:00:24.833Z,13.44
2019-04-23T14:02:52.518Z,13.72
2019-04-23T14:05:33.222Z,13.84
2019-04-23T14:08:16.444Z,14.34
2019-04-23T14:10:40.084Z,14.26
2019-04-23T14:21:08.642Z,11.75
2019-04-23T14:23:55.863Z,11.49
2019-04-23T14:34:01.704Z,11.74
2019-04-23T14:39:10.134Z,13.40
2019-04-23T14:41:36.325Z,12.99
2019-04-23T14:46:58.172Z,13.28
2019-04-23T14:49:34.010Z,13.14
2019-04-23T14:52:10.483Z,12.97
2019-04-23T14:55:19.867Z,13.76
2019-04-23T14:57:31.722Z,13.38
2019-04-23T15:00:00.117Z,13.67
2019-04-23T15:02:28.800Z,13.64
2019-04-23T15:05:03.709Z,13.92
2019-04-23T15:07:37.931Z,14.70
2019-04-23T15:10:18.397Z,14.59
2019-04-23T15:12:46.260Z,14.32
2019-04-23T15:17:49.844Z,14.56
2019-04-23T15:23:13.426Z,14.02
2019-04-23T15:26:03.451Z,13.99
2019-04-23T15:27:21.832Z,14.76
2019-04-23T15:30:38.787Z,14.12
2019-04-23T15:33:26.041Z,13.66
2019-04-23T15:36:21.989Z,13.09
2019-04-23T15:38:36.088Z,12.29
2019-04-23T15:41:01.897Z,12.11
2019-04-23T15:43:32.691Z,11.91
2019-04-23T15:46:12.885Z,11.66
2019-04-23T15:48:42.532Z,12.28
2019-04-23T15:51:21.907Z,12.59
2019-04-23T15:53:43.623Z,12.78
2019-04-23T15:56:33.464Z,12.65
2019-04-23T16:03:38.222Z,12.53
2019-04-23T16:06:12.737Z,13.21
2019-04-23T16:09:06.357Z,13.51
2019-04-23T16:14:22.377Z,13.00
2019-04-23T16:17:04.650Z,13.01
2019-04-23T16:19:42.910Z,13.02
2019-04-23T16:22:10.737Z,13.34
2019-04-23T16:24:56.188Z,13.53
2019-04-23T16:27:19.960Z,13.31
2019-04-23T16:35:56.667Z,13.46
2019-04-23T16:41:07.695Z,13.23
2019-04-23T16:43:18.366Z,13.67
2019-04-23T16:46:07.533Z,13.62
2019-04-23T16:48:40.599Z,13.17
2019-04-23T16:53:54.146Z,12.67
2019-04-23T17:01:12.552Z,12.66
2019-04-23T17:03:59.448Z,12.68
2019-04-23T17:06:24.757Z,13.12
2019-04-23T17:08:57.115Z,12.85
2019-04-23T17:14:09.879Z,11.79
2019-04-23T17:19:19.280Z,11.72
2019-04-23T17:21:47.021Z,11.56
2019-04-23T17:24:25.869Z,11.74
2019-04-23T17:27:07.120Z,11.94
2019-04-23T17:29:35.123Z,11.82
2019-04-23T17:32:28.097Z,11.81
2019-04-23T17:35:24.415Z,11.87
2019-04-23T17:37:55.466Z,12.08
2019-04-23T17:40:18.140Z,12.26
2019-04-23T17:43:04.782Z,12.25
2019-04-23T17:45:32.442Z,11.85
2019-04-23T17:48:13.249Z,12.01
2019-04-23T17:50:53.177Z,12.25
2019-04-23T17:56:08.891Z,12.18
2019-04-23T18:06:37.665Z,12.53
2019-04-23T18:11:37.672Z,12.91
2019-04-23T18:14:08.359Z,11.94
2019-04-23T18:16:48.122Z,11.93
2019-04-23T18:19:16.930Z,11.88
2019-04-23T18:22:24.536Z,11.79
2019-04-23T18:25:09.574Z,11.64
2019-04-23T18:27:47.080Z,11.53
2019-04-23T18:30:49.633Z,11.31
2019-04-23T18:35:38.971Z,11.33
2019-04-23T18:41:02.587Z,11.22
2019-04-23T18:48:44.154Z,11.09
2019-04-23T18:51:05.204Z,11.11
2019-04-23T18:56:15.332Z,11.01
2019-04-23T19:01:37.392Z,10.93
2019-04-23T19:04:33.077Z,10.92
2019-04-23T19:06:51.254Z,10.79
2019-04-23T19:10:11.051Z,10.65
2019-04-23T19:15:28.630Z,10.85
2019-04-23T19:20:45.185Z,10.81
2019-04-23T19:25:30.480Z,10.80
2019-04-23T19:28:23.670Z,10.75
2019-04-23T19:33:35.225Z,10.67
2019-04-23T19:38:56.095Z,10.30
2019-04-23T19:41:47.545Z,10.03
2019-04-23T19:49:29.598Z,10.24
2019-04-23T19:51:59.670Z,10.19
2019-04-23T19:57:17.856Z,10.03
2019-04-23T20:02:45.111Z,10.11
2019-04-23T20:04:45.932Z,9.86
2019-04-23T20:09:53.422Z,9.62
2019-04-23T20:12:38.759Z,9.43
2019-04-23T20:15:18.180Z,9.08
2019-04-23T20:17:42.763Z,9.00
2019-04-23T20:20:10.264Z,9.14
2019-04-23T20:22:52.261Z,9.40
2019-04-23T20:28:05.382Z,9.76
2019-04-23T20:31:04.095Z,9.80
2019-04-23T20:34:07.683Z,9.92
2019-04-23T20:36:40.076Z,9.89
2019-04-23T20:39:06.189Z,9.92
2019-04-23T20:42:11.001Z,10.04
2019-04-23T20:49:43.208Z,9.78
2019-04-23T20:52:07.424Z,9.48
2019-04-23T20:54:56.456Z,9.46
2019-04-23T21:00:14.231Z,9.53
2019-04-23T21:08:06.075Z,9.58
2019-04-23T21:10:37.260Z,9.60
2019-04-23T21:13:18.747Z,9.41
2019-04-23T21:18:22.377Z,9.48
2019-04-23T21:20:54.781Z,9.55
2019-04-23T21:23:32.203Z,9.51
2019-04-23T21:25:57.103Z,9.46
2019-04-23T21:31:18.969Z,9.57
2019-04-23T21:34:04.226Z,9.57
2019-04-23T21:36:46.392Z,9.56
2019-04-23T21:42:41.132Z,9.18
2019-04-23T21:45:09.100Z,9.31
2019-04-23T21:47:51.766Z,9.17
2019-04-23T21:50:27.653Z,9.03
2019-04-23T21:55:30.674Z,8.83
2019-04-23T21:58:17.270Z,8.95
2019-04-23T22:00:46.185Z,8.97
2019-04-23T22:03:18.151Z,9.00
2019-04-23T22:05:50.414Z,9.18
2019-04-23T22:08:20.495Z,9.06
2019-04-23T22:10:57.352Z,9.17
2019-04-23T22:13:34.941Z,9.30
2019-04-23T22:16:07.286Z,9.44
2019-04-23T22:18:42.087Z,9.51
2019-04-23T22:21:15.634Z,9.53
2019-04-23T22:23:52.563Z,9.48
2019-04-23T22:26:22.193Z,9.47
2019-04-23T22:28:57.820Z,9.58
2019-04-23T22:31:29.191Z,9.71
2019-04-23T22:34:21.803Z,9.72
2019-04-23T22:36:55.122Z,9.82
2019-04-23T22:39:21.937Z,9.70
2019-04-23T22:44:39.175Z,9.46
2019-04-23T22:47:20.920Z,9.28
2019-04-23T22:55:05.503Z,9.51
2019-04-23T22:57:56.208Z,9.49
2019-04-23T23:00:20.143Z,9.41
2019-04-23T23:03:24.366Z,9.62
2019-04-23T23:08:32.076Z,9.66
2019-04-23T23:11:03.874Z,9.45
2019-04-23T23:16:07.215Z,9.21
2019-04-23T23:18:49.152Z,9.27
2019-04-23T23:21:20.549Z,9.38
2019-04-23T23:23:53.302Z,9.53
2019-04-23T23:26:36.021Z,9.46
2019-04-23T23:29:00.716Z,9.64
2019-04-23T23:31:38.477Z,9.60
2019-04-23T23:34:10.132Z,9.42
2019-04-23T23:36:47.842Z,9.35
2019-04-23T23:41:55.095Z,9.42
2019-04-23T23:44:35.222Z,9.21
2019-04-23T23:47:04.367Z,9.33
2019-04-23T23:49:34.409Z,8.93
2019-04-23T23:54:36.181Z,9.02
